sensor_id;sensor_type;location;lat;lon;timestamp;P1;durP1;ratioP1;P2;durP2;ratioP2
45354;SDS011;31091;48.758;9.150;2023-03-08T00:02:13;13.43;;;6.25;;
45354;SDS011;31091;48.758;9.150;2023-03-08T00:04:58;12.60;;;6.75;;
45354;SDS011;31091;48.758;9.150;2023-03-08T00:07:44;13.32;;;6.70;;
45354;SDS011;31091;48.758;9.150;2023-03-08T00:10:29;11.05;;;6.78;;
45354;SDS011;31091;48.758;9.150;2023-03-08T00:13:15;10.77;;;6.53;;
45354;SDS011;31091;48.758;9.150;2023-03-08T00:16:00;13.23;;;8.00;;
45354;SDS011;31091;48.758;9.150;2023-03-08T00:18:46;12.10;;;6.43;;
45354;SDS011;31091;48.758;9.150;2023-03-08T00:21:31;10.20;;;5.70;;
45354;SDS011;31091;48.758;9.150;2023-03-08T00:24:17;10.65;;;5.90;;
45354;SDS011;31091;48.758;9.150;2023-03-08T00:27:03;12.98;;;6.57;;
45354;SDS011;31091;48.758;9.150;2023-03-08T00:29:48;11.45;;;5.45;;
45354;SDS011;31091;48.758;9.150;2023-03-08T00:32:34;11.68;;;5.82;;
45354;SDS011;31091;48.758;9.150;2023-03-08T00:35:19;10.63;;;5.97;;
45354;SDS011;31091;48.758;9.150;2023-03-08T00:38:04;11.45;;;6.50;;
45354;SDS011;31091;48.758;9.150;2023-03-08T00:40:49;14.48;;;6.82;;
45354;SDS011;31091;48.758;9.150;2023-03-08T00:43:35;10.15;;;5.75;;
45354;SDS011;31091;48.758;9.150;2023-03-08T00:46:20;12.45;;;6.70;;
45354;SDS011;31091;48.758;9.150;2023-03-08T00:49:05;10.60;;;6.45;;
45354;SDS011;31091;48.758;9.150;2023-03-08T00:51:51;12.65;;;6.93;;
45354;SDS011;31091;48.758;9.150;2023-03-08T00:54:36;13.10;;;7.15;;
45354;SDS011;31091;48.758;9.150;2023-03-08T00:57:21;12.43;;;7.15;;
45354;SDS011;31091;48.758;9.150;2023-03-08T01:00:07;11.75;;;7.15;;
45354;SDS011;31091;48.758;9.150;2023-03-08T01:02:55;10.90;;;6.47;;
45354;SDS011;31091;48.758;9.150;2023-03-08T01:05:41;15.90;;;7.50;;
45354;SDS011;31091;48.758;9.150;2023-03-08T01:08:27;12.95;;;7.30;;
45354;SDS011;31091;48.758;9.150;2023-03-08T01:11:19;13.40;;;7.68;;
45354;SDS011;31091;48.758;9.150;2023-03-08T01:14:05;13.43;;;6.72;;
45354;SDS011;31091;48.758;9.150;2023-03-08T01:16:52;11.18;;;6.35;;
45354;SDS011;31091;48.758;9.150;2023-03-08T01:19:38;12.32;;;6.47;;
45354;SDS011;31091;48.758;9.150;2023-03-08T01:22:23;13.35;;;7.25;;
45354;SDS011;31091;48.758;9.150;2023-03-08T01:25:08;14.80;;;6.97;;
45354;SDS011;31091;48.758;9.150;2023-03-08T01:27:53;16.15;;;7.45;;
45354;SDS011;31091;48.758;9.150;2023-03-08T01:30:38;16.33;;;7.72;;
45354;SDS011;31091;48.758;9.150;2023-03-08T01:33:24;13.45;;;7.03;;
45354;SDS011;31091;48.758;9.150;2023-03-08T01:36:11;11.25;;;6.45;;
45354;SDS011;31091;48.758;9.150;2023-03-08T01:38:58;13.02;;;7.63;;
45354;SDS011;31091;48.758;9.150;2023-03-08T01:41:44;14.05;;;8.60;;
45354;SDS011;31091;48.758;9.150;2023-03-08T01:44:47;13.80;;;7.65;;
45354;SDS011;31091;48.758;9.150;2023-03-08T01:47:32;14.20;;;7.85;;
45354;SDS011;31091;48.758;9.150;2023-03-08T01:50:20;14.85;;;7.88;;
45354;SDS011;31091;48.758;9.150;2023-03-08T01:53:05;15.65;;;7.35;;
45354;SDS011;31091;48.758;9.150;2023-03-08T01:55:50;12.65;;;6.72;;
45354;SDS011;31091;48.758;9.150;2023-03-08T01:58:37;13.13;;;6.38;;
45354;SDS011;31091;48.758;9.150;2023-03-08T02:01:23;19.15;;;8.35;;
45354;SDS011;31091;48.758;9.150;2023-03-08T02:04:08;14.77;;;7.05;;
45354;SDS011;31091;48.758;9.150;2023-03-08T02:06:54;13.52;;;7.32;;
45354;SDS011;31091;48.758;9.150;2023-03-08T02:09:39;14.15;;;7.65;;
45354;SDS011;31091;48.758;9.150;2023-03-08T02:12:25;14.80;;;8.02;;
45354;SDS011;31091;48.758;9.150;2023-03-08T02:15:12;15.48;;;6.63;;
45354;SDS011;31091;48.758;9.150;2023-03-08T02:17:57;13.18;;;7.15;;
45354;SDS011;31091;48.758;9.150;2023-03-08T02:20:43;12.98;;;7.07;;
45354;SDS011;31091;48.758;9.150;2023-03-08T02:23:28;11.55;;;6.35;;
45354;SDS011;31091;48.758;9.150;2023-03-08T02:26:13;14.02;;;7.03;;
45354;SDS011;31091;48.758;9.150;2023-03-08T02:28:59;14.57;;;7.22;;
45354;SDS011;31091;48.758;9.150;2023-03-08T02:31:44;13.52;;;7.07;;
45354;SDS011;31091;48.758;9.150;2023-03-08T02:34:29;14.07;;;7.25;;
45354;SDS011;31091;48.758;9.150;2023-03-08T02:37:14;16.55;;;8.98;;
45354;SDS011;31091;48.758;9.150;2023-03-08T02:39:59;14.25;;;7.68;;
45354;SDS011;31091;48.758;9.150;2023-03-08T02:42:45;14.27;;;7.22;;
45354;SDS011;31091;48.758;9.150;2023-03-08T02:45:30;16.65;;;7.70;;
45354;SDS011;31091;48.758;9.150;2023-03-08T02:48:16;15.25;;;7.05;;
45354;SDS011;31091;48.758;9.150;2023-03-08T02:51:01;12.38;;;6.50;;
45354;SDS011;31091;48.758;9.150;2023-03-08T02:53:47;13.45;;;7.45;;
45354;SDS011;31091;48.758;9.150;2023-03-08T02:56:32;13.45;;;7.30;;
45354;SDS011;31091;48.758;9.150;2023-03-08T02:59:17;14.63;;;6.72;;
45354;SDS011;31091;48.758;9.150;2023-03-08T03:02:02;13.50;;;6.65;;
45354;SDS011;31091;48.758;9.150;2023-03-08T03:04:48;16.60;;;7.90;;
45354;SDS011;31091;48.758;9.150;2023-03-08T03:07:37;14.68;;;6.93;;
45354;SDS011;31091;48.758;9.150;2023-03-08T03:10:22;12.23;;;6.63;;
45354;SDS011;31091;48.758;9.150;2023-03-08T03:13:08;18.17;;;7.82;;
45354;SDS011;31091;48.758;9.150;2023-03-08T03:15:53;17.45;;;7.72;;
45354;SDS011;31091;48.758;9.150;2023-03-08T03:18:38;12.13;;;6.22;;
45354;SDS011;31091;48.758;9.150;2023-03-08T03:21:23;15.80;;;7.65;;
45354;SDS011;31091;48.758;9.150;2023-03-08T03:24:09;14.63;;;6.70;;
45354;SDS011;31091;48.758;9.150;2023-03-08T03:26:54;12.80;;;6.97;;
45354;SDS011;31091;48.758;9.150;2023-03-08T03:29:39;14.88;;;6.35;;
45354;SDS011;31091;48.758;9.150;2023-03-08T03:32:24;16.63;;;6.97;;
45354;SDS011;31091;48.758;9.150;2023-03-08T03:35:10;14.07;;;6.20;;
45354;SDS011;31091;48.758;9.150;2023-03-08T03:37:55;13.18;;;6.03;;
45354;SDS011;31091;48.758;9.150;2023-03-08T03:40:40;14.30;;;6.85;;
45354;SDS011;31091;48.758;9.150;2023-03-08T03:43:25;15.25;;;7.40;;
45354;SDS011;31091;48.758;9.150;2023-03-08T03:46:12;13.18;;;7.53;;
45354;SDS011;31091;48.758;9.150;2023-03-08T03:48:57;14.30;;;7.13;;
45354;SDS011;31091;48.758;9.150;2023-03-08T03:51:42;13.68;;;6.85;;
45354;SDS011;31091;48.758;9.150;2023-03-08T03:54:28;13.50;;;7.95;;
45354;SDS011;31091;48.758;9.150;2023-03-08T03:57:13;12.05;;;5.80;;
45354;SDS011;31091;48.758;9.150;2023-03-08T03:59:58;13.32;;;6.75;;
45354;SDS011;31091;48.758;9.150;2023-03-08T04:02:44;12.77;;;6.90;;
45354;SDS011;31091;48.758;9.150;2023-03-08T04:05:29;14.23;;;7.38;;
45354;SDS011;31091;48.758;9.150;2023-03-08T04:08:14;16.52;;;7.38;;
45354;SDS011;31091;48.758;9.150;2023-03-08T04:10:59;14.85;;;6.82;;
45354;SDS011;31091;48.758;9.150;2023-03-08T04:13:45;13.27;;;7.57;;
45354;SDS011;31091;48.758;9.150;2023-03-08T04:16:31;13.98;;;7.07;;
45354;SDS011;31091;48.758;9.150;2023-03-08T04:19:17;13.35;;;7.13;;
45354;SDS011;31091;48.758;9.150;2023-03-08T04:22:02;11.82;;;6.15;;
45354;SDS011;31091;48.758;9.150;2023-03-08T04:24:47;12.48;;;6.25;;
45354;SDS011;31091;48.758;9.150;2023-03-08T04:27:32;13.65;;;6.25;;
45354;SDS011;31091;48.758;9.150;2023-03-08T04:30:18;12.57;;;6.40;;
45354;SDS011;31091;48.758;9.150;2023-03-08T04:33:03;14.65;;;6.10;;
45354;SDS011;31091;48.758;9.150;2023-03-08T04:35:48;13.20;;;6.30;;
45354;SDS011;31091;48.758;9.150;2023-03-08T04:38:33;13.00;;;6.57;;
45354;SDS011;31091;48.758;9.150;2023-03-08T04:41:20;14.88;;;6.22;;
45354;SDS011;31091;48.758;9.150;2023-03-08T04:44:05;11.18;;;5.68;;
45354;SDS011;31091;48.758;9.150;2023-03-08T04:46:50;12.63;;;6.95;;
45354;SDS011;31091;48.758;9.150;2023-03-08T04:49:36;14.80;;;6.50;;
45354;SDS011;31091;48.758;9.150;2023-03-08T04:52:21;12.02;;;6.50;;
45354;SDS011;31091;48.758;9.150;2023-03-08T04:55:06;12.55;;;6.15;;
45354;SDS011;31091;48.758;9.150;2023-03-08T04:57:51;13.02;;;6.38;;
45354;SDS011;31091;48.758;9.150;2023-03-08T05:00:37;11.70;;;6.53;;
45354;SDS011;31091;48.758;9.150;2023-03-08T05:03:23;14.27;;;6.75;;
45354;SDS011;31091;48.758;9.150;2023-03-08T05:06:09;12.32;;;6.60;;
45354;SDS011;31091;48.758;9.150;2023-03-08T05:08:54;12.00;;;6.45;;
45354;SDS011;31091;48.758;9.150;2023-03-08T05:11:39;12.70;;;6.90;;
45354;SDS011;31091;48.758;9.150;2023-03-08T05:14:25;12.00;;;6.95;;
45354;SDS011;31091;48.758;9.150;2023-03-08T05:17:10;12.77;;;7.38;;
45354;SDS011;31091;48.758;9.150;2023-03-08T05:19:55;13.23;;;5.95;;
45354;SDS011;31091;48.758;9.150;2023-03-08T05:22:40;15.80;;;6.90;;
45354;SDS011;31091;48.758;9.150;2023-03-08T05:25:26;15.13;;;6.53;;
45354;SDS011;31091;48.758;9.150;2023-03-08T05:28:11;13.95;;;7.32;;
45354;SDS011;31091;48.758;9.150;2023-03-08T05:31:03;13.23;;;6.63;;
45354;SDS011;31091;48.758;9.150;2023-03-08T05:33:49;15.25;;;8.25;;
45354;SDS011;31091;48.758;9.150;2023-03-08T05:36:35;14.52;;;7.88;;
45354;SDS011;31091;48.758;9.150;2023-03-08T05:39:20;12.20;;;6.10;;
45354;SDS011;31091;48.758;9.150;2023-03-08T05:42:05;14.82;;;7.88;;
45354;SDS011;31091;48.758;9.150;2023-03-08T05:44:51;13.65;;;8.25;;
45354;SDS011;31091;48.758;9.150;2023-03-08T05:47:36;14.57;;;7.38;;
45354;SDS011;31091;48.758;9.150;2023-03-08T05:50:21;12.70;;;6.65;;
45354;SDS011;31091;48.758;9.150;2023-03-08T05:53:06;15.15;;;7.75;;
45354;SDS011;31091;48.758;9.150;2023-03-08T05:55:51;13.68;;;7.05;;
45354;SDS011;31091;48.758;9.150;2023-03-08T05:58:39;16.60;;;7.65;;
45354;SDS011;31091;48.758;9.150;2023-03-08T06:01:25;15.38;;;8.02;;
45354;SDS011;31091;48.758;9.150;2023-03-08T06:04:10;13.40;;;7.10;;
45354;SDS011;31091;48.758;9.150;2023-03-08T06:06:56;18.67;;;9.20;;
45354;SDS011;31091;48.758;9.150;2023-03-08T06:09:41;12.63;;;7.20;;
45354;SDS011;31091;48.758;9.150;2023-03-08T06:12:26;17.45;;;7.72;;
45354;SDS011;31091;48.758;9.150;2023-03-08T06:15:11;15.18;;;8.23;;
45354;SDS011;31091;48.758;9.150;2023-03-08T06:17:57;14.77;;;7.93;;
45354;SDS011;31091;48.758;9.150;2023-03-08T06:20:42;14.93;;;7.25;;
45354;SDS011;31091;48.758;9.150;2023-03-08T06:23:28;16.20;;;8.20;;
45354;SDS011;31091;48.758;9.150;2023-03-08T06:26:14;15.52;;;7.93;;
45354;SDS011;31091;48.758;9.150;2023-03-08T06:28:59;15.13;;;7.45;;
45354;SDS011;31091;48.758;9.150;2023-03-08T06:31:44;13.68;;;7.05;;
45354;SDS011;31091;48.758;9.150;2023-03-08T06:34:30;14.40;;;8.00;;
45354;SDS011;31091;48.758;9.150;2023-03-08T06:37:16;28.90;;;9.50;;
45354;SDS011;31091;48.758;9.150;2023-03-08T06:40:01;15.25;;;8.35;;
45354;SDS011;31091;48.758;9.150;2023-03-08T06:42:47;15.10;;;8.07;;
45354;SDS011;31091;48.758;9.150;2023-03-08T06:45:33;11.90;;;7.10;;
45354;SDS011;31091;48.758;9.150;2023-03-08T06:48:21;14.45;;;8.68;;
45354;SDS011;31091;48.758;9.150;2023-03-08T06:51:06;13.52;;;7.22;;
45354;SDS011;31091;48.758;9.150;2023-03-08T06:53:52;16.33;;;8.40;;
45354;SDS011;31091;48.758;9.150;2023-03-08T06:56:37;17.98;;;9.07;;
45354;SDS011;31091;48.758;9.150;2023-03-08T06:59:22;19.48;;;8.60;;
45354;SDS011;31091;48.758;9.150;2023-03-08T07:02:08;15.77;;;9.73;;
45354;SDS011;31091;48.758;9.150;2023-03-08T07:04:53;14.35;;;8.05;;
45354;SDS011;31091;48.758;9.150;2023-03-08T07:07:38;14.85;;;8.60;;
45354;SDS011;31091;48.758;9.150;2023-03-08T07:10:24;16.02;;;8.48;;
45354;SDS011;31091;48.758;9.150;2023-03-08T07:13:09;17.38;;;9.93;;
45354;SDS011;31091;48.758;9.150;2023-03-08T07:15:54;16.08;;;8.63;;
45354;SDS011;31091;48.758;9.150;2023-03-08T07:18:40;16.70;;;9.10;;
45354;SDS011;31091;48.758;9.150;2023-03-08T07:21:25;16.25;;;8.18;;
45354;SDS011;31091;48.758;9.150;2023-03-08T07:24:10;16.38;;;9.13;;
45354;SDS011;31091;48.758;9.150;2023-03-08T07:26:56;18.50;;;8.70;;
45354;SDS011;31091;48.758;9.150;2023-03-08T07:29:41;17.88;;;9.88;;
45354;SDS011;31091;48.758;9.150;2023-03-08T07:32:26;19.85;;;9.85;;
45354;SDS011;31091;48.758;9.150;2023-03-08T07:35:13;17.35;;;9.18;;
45354;SDS011;31091;48.758;9.150;2023-03-08T07:37:58;17.38;;;10.20;;
45354;SDS011;31091;48.758;9.150;2023-03-08T07:40:44;15.63;;;8.35;;
45354;SDS011;31091;48.758;9.150;2023-03-08T07:43:29;15.85;;;9.57;;
45354;SDS011;31091;48.758;9.150;2023-03-08T07:46:14;19.70;;;11.07;;
45354;SDS011;31091;48.758;9.150;2023-03-08T07:48:59;19.95;;;9.80;;
45354;SDS011;31091;48.758;9.150;2023-03-08T07:51:45;18.40;;;9.68;;
45354;SDS011;31091;48.758;9.150;2023-03-08T07:54:30;17.13;;;10.50;;
45354;SDS011;31091;48.758;9.150;2023-03-08T07:57:15;19.42;;;10.20;;
45354;SDS011;31091;48.758;9.150;2023-03-08T08:00:00;15.93;;;9.48;;
45354;SDS011;31091;48.758;9.150;2023-03-08T08:02:45;18.85;;;9.15;;
45354;SDS011;31091;48.758;9.150;2023-03-08T08:05:33;14.82;;;8.75;;
45354;SDS011;31091;48.758;9.150;2023-03-08T08:08:18;13.80;;;8.07;;
45354;SDS011;31091;48.758;9.150;2023-03-08T08:11:11;14.48;;;8.73;;
45354;SDS011;31091;48.758;9.150;2023-03-08T08:13:56;15.98;;;8.35;;
45354;SDS011;31091;48.758;9.150;2023-03-08T08:16:41;13.85;;;8.27;;
45354;SDS011;31091;48.758;9.150;2023-03-08T08:19:26;13.05;;;7.82;;
45354;SDS011;31091;48.758;9.150;2023-03-08T08:22:12;13.02;;;7.90;;
45354;SDS011;31091;48.758;9.150;2023-03-08T08:24:58;15.57;;;8.35;;
45354;SDS011;31091;48.758;9.150;2023-03-08T08:27:43;16.63;;;7.85;;
45354;SDS011;31091;48.758;9.150;2023-03-08T08:30:28;15.43;;;7.70;;
45354;SDS011;31091;48.758;9.150;2023-03-08T08:33:13;16.65;;;8.40;;
45354;SDS011;31091;48.758;9.150;2023-03-08T08:35:59;12.48;;;7.75;;
45354;SDS011;31091;48.758;9.150;2023-03-08T08:38:44;13.85;;;7.40;;
45354;SDS011;31091;48.758;9.150;2023-03-08T08:41:32;16.73;;;8.35;;
45354;SDS011;31091;48.758;9.150;2023-03-08T08:44:18;18.40;;;9.27;;
45354;SDS011;31091;48.758;9.150;2023-03-08T08:47:03;15.07;;;7.50;;
45354;SDS011;31091;48.758;9.150;2023-03-08T08:49:48;16.15;;;7.68;;
45354;SDS011;31091;48.758;9.150;2023-03-08T08:52:33;12.65;;;7.40;;
45354;SDS011;31091;48.758;9.150;2023-03-08T08:55:19;15.80;;;8.73;;
45354;SDS011;31091;48.758;9.150;2023-03-08T08:58:04;15.63;;;8.15;;
45354;SDS011;31091;48.758;9.150;2023-03-08T09:00:50;17.40;;;8.38;;
45354;SDS011;31091;48.758;9.150;2023-03-08T09:03:35;16.83;;;7.97;;
45354;SDS011;31091;48.758;9.150;2023-03-08T09:06:21;15.18;;;8.15;;
45354;SDS011;31091;48.758;9.150;2023-03-08T09:09:07;12.73;;;7.60;;
45354;SDS011;31091;48.758;9.150;2023-03-08T09:11:52;17.00;;;8.68;;
45354;SDS011;31091;48.758;9.150;2023-03-08T09:14:38;14.82;;;7.93;;
45354;SDS011;31091;48.758;9.150;2023-03-08T09:17:23;15.00;;;7.80;;
45354;SDS011;31091;48.758;9.150;2023-03-08T09:20:08;14.68;;;9.18;;
45354;SDS011;31091;48.758;9.150;2023-03-08T09:22:54;13.88;;;8.20;;
45354;SDS011;31091;48.758;9.150;2023-03-08T09:25:39;16.13;;;9.10;;
45354;SDS011;31091;48.758;9.150;2023-03-08T09:28:24;16.00;;;9.15;;
45354;SDS011;31091;48.758;9.150;2023-03-08T09:31:10;18.08;;;9.82;;
45354;SDS011;31091;48.758;9.150;2023-03-08T09:33:58;16.07;;;9.67;;
45354;SDS011;31091;48.758;9.150;2023-03-08T09:36:44;15.15;;;8.65;;
45354;SDS011;31091;48.758;9.150;2023-03-08T09:39:29;19.08;;;9.98;;
45354;SDS011;31091;48.758;9.150;2023-03-08T09:42:15;18.13;;;9.68;;
45354;SDS011;31091;48.758;9.150;2023-03-08T09:47:59;19.33;;;9.50;;
45354;SDS011;31091;48.758;9.150;2023-03-08T09:50:49;15.70;;;8.68;;
45354;SDS011;31091;48.758;9.150;2023-03-08T09:56:28;15.65;;;8.75;;
45354;SDS011;31091;48.758;9.150;2023-03-08T10:02:05;14.68;;;8.82;;
45354;SDS011;31091;48.758;9.150;2023-03-08T10:13:33;14.95;;;6.95;;
45354;SDS011;31091;48.758;9.150;2023-03-08T10:16:20;11.75;;;7.00;;
45354;SDS011;31091;48.758;9.150;2023-03-08T10:21:58;13.50;;;6.38;;
45354;SDS011;31091;48.758;9.150;2023-03-08T10:27:51;9.73;;;5.30;;
45354;SDS011;31091;48.758;9.150;2023-03-08T10:30:48;10.07;;;5.53;;
45354;SDS011;31091;48.758;9.150;2023-03-08T10:33:34;10.43;;;5.03;;
45354;SDS011;31091;48.758;9.150;2023-03-08T10:36:21;9.75;;;4.97;;
45354;SDS011;31091;48.758;9.150;2023-03-08T10:39:07;13.30;;;5.65;;
45354;SDS011;31091;48.758;9.150;2023-03-08T10:41:54;8.48;;;5.32;;
45354;SDS011;31091;48.758;9.150;2023-03-08T10:44:42;8.57;;;4.47;;
45354;SDS011;31091;48.758;9.150;2023-03-08T10:47:29;9.57;;;4.90;;
45354;SDS011;31091;48.758;9.150;2023-03-08T10:50:20;7.55;;;4.30;;
45354;SDS011;31091;48.758;9.150;2023-03-08T10:53:16;6.28;;;3.72;;
45354;SDS011;31091;48.758;9.150;2023-03-08T10:56:02;6.63;;;3.67;;
45354;SDS011;31091;48.758;9.150;2023-03-08T10:58:47;7.22;;;3.65;;
45354;SDS011;31091;48.758;9.150;2023-03-08T11:01:33;6.78;;;3.28;;
45354;SDS011;31091;48.758;9.150;2023-03-08T11:04:20;5.55;;;2.70;;
45354;SDS011;31091;48.758;9.150;2023-03-08T11:07:09;4.82;;;2.75;;
45354;SDS011;31091;48.758;9.150;2023-03-08T11:10:13;6.82;;;2.75;;
45354;SDS011;31091;48.758;9.150;2023-03-08T11:13:14;4.45;;;2.35;;
45354;SDS011;31091;48.758;9.150;2023-03-08T11:16:24;2.42;;;1.70;;
45354;SDS011;31091;48.758;9.150;2023-03-08T11:19:16;2.58;;;1.33;;
45354;SDS011;31091;48.758;9.150;2023-03-08T11:25:03;3.90;;;1.30;;
45354;SDS011;31091;48.758;9.150;2023-03-08T11:30:48;1.35;;;1.10;;
45354;SDS011;31091;48.758;9.150;2023-03-08T11:39:29;1.77;;;1.00;;
45354;SDS011;31091;48.758;9.150;2023-03-08T11:42:21;6.40;;;2.70;;
45354;SDS011;31091;48.758;9.150;2023-03-08T11:45:16;2.10;;;1.45;;
45354;SDS011;31091;48.758;9.150;2023-03-08T11:48:48;3.47;;;1.40;;
45354;SDS011;31091;48.758;9.150;2023-03-08T11:51:14;2.67;;;1.60;;
45354;SDS011;31091;48.758;9.150;2023-03-08T11:56:59;2.75;;;1.30;;
45354;SDS011;31091;48.758;9.150;2023-03-08T11:59:47;1.80;;;1.15;;
45354;SDS011;31091;48.758;9.150;2023-03-08T12:02:36;3.22;;;1.10;;
45354;SDS011;31091;48.758;9.150;2023-03-08T12:08:19;1.38;;;0.90;;
45354;SDS011;31091;48.758;9.150;2023-03-08T12:11:07;2.65;;;1.30;;
45354;SDS011;31091;48.758;9.150;2023-03-08T12:13:56;3.03;;;0.98;;
45354;SDS011;31091;48.758;9.150;2023-03-08T12:16:50;2.50;;;1.63;;
45354;SDS011;31091;48.758;9.150;2023-03-08T12:19:46;1.85;;;0.90;;
45354;SDS011;31091;48.758;9.150;2023-03-08T12:25:25;4.60;;;1.38;;
45354;SDS011;31091;48.758;9.150;2023-03-08T12:31:12;2.35;;;1.20;;
45354;SDS011;31091;48.758;9.150;2023-03-08T12:34:11;1.30;;;1.00;;
45354;SDS011;31091;48.758;9.150;2023-03-08T12:36:56;2.33;;;1.15;;
45354;SDS011;31091;48.758;9.150;2023-03-08T12:39:41;2.10;;;1.10;;
45354;SDS011;31091;48.758;9.150;2023-03-08T12:42:31;1.10;;;1.00;;
45354;SDS011;31091;48.758;9.150;2023-03-08T12:48:21;2.10;;;1.05;;
45354;SDS011;31091;48.758;9.150;2023-03-08T12:53:58;1.77;;;1.10;;
45354;SDS011;31091;48.758;9.150;2023-03-08T12:56:50;2.35;;;1.10;;
45354;SDS011;31091;48.758;9.150;2023-03-08T12:59:37;1.52;;;1.00;;
45354;SDS011;31091;48.758;9.150;2023-03-08T13:02:30;8.13;;;0.93;;
45354;SDS011;31091;48.758;9.150;2023-03-08T13:05:26;8.43;;;1.52;;
45354;SDS011;31091;48.758;9.150;2023-03-08T13:11:02;2.85;;;1.52;;
45354;SDS011;31091;48.758;9.150;2023-03-08T13:13:56;1.10;;;0.90;;
45354;SDS011;31091;48.758;9.150;2023-03-08T13:16:42;3.10;;;0.93;;
45354;SDS011;31091;48.758;9.150;2023-03-08T13:19:29;4.78;;;1.05;;
45354;SDS011;31091;48.758;9.150;2023-03-08T13:22:18;3.22;;;0.90;;
45354;SDS011;31091;48.758;9.150;2023-03-08T13:28:16;0.98;;;0.73;;
45354;SDS011;31091;48.758;9.150;2023-03-08T13:33:48;2.28;;;1.15;;
45354;SDS011;31091;48.758;9.150;2023-03-08T13:36:33;0.88;;;0.77;;
45354;SDS011;31091;48.758;9.150;2023-03-08T13:39:20;3.53;;;0.90;;
45354;SDS011;31091;48.758;9.150;2023-03-08T13:42:09;3.53;;;0.98;;
45354;SDS011;31091;48.758;9.150;2023-03-08T13:45:08;1.00;;;0.90;;
45354;SDS011;31091;48.758;9.150;2023-03-08T13:47:55;1.63;;;1.02;;
45354;SDS011;31091;48.758;9.150;2023-03-08T13:50:42;3.22;;;0.82;;
45354;SDS011;31091;48.758;9.150;2023-03-08T13:53:28;1.92;;;0.88;;
45354;SDS011;31091;48.758;9.150;2023-03-08T13:56:22;2.90;;;0.95;;
45354;SDS011;31091;48.758;9.150;2023-03-08T13:59:17;1.65;;;0.93;;
45354;SDS011;31091;48.758;9.150;2023-03-08T14:02:12;1.58;;;0.88;;
45354;SDS011;31091;48.758;9.150;2023-03-08T14:05:01;1.83;;;1.00;;
45354;SDS011;31091;48.758;9.150;2023-03-08T14:07:54;1.50;;;1.10;;
45354;SDS011;31091;48.758;9.150;2023-03-08T14:10:40;1.70;;;0.80;;
45354;SDS011;31091;48.758;9.150;2023-03-08T14:13:29;2.17;;;0.80;;
45354;SDS011;31091;48.758;9.150;2023-03-08T14:16:26;2.25;;;0.90;;
45354;SDS011;31091;48.758;9.150;2023-03-08T14:19:23;0.70;;;0.70;;
45354;SDS011;31091;48.758;9.150;2023-03-08T14:22:13;0.85;;;0.70;;
45354;SDS011;31091;48.758;9.150;2023-03-08T14:24:59;1.98;;;0.70;;
45354;SDS011;31091;48.758;9.150;2023-03-08T14:30:34;2.97;;;0.93;;
45354;SDS011;31091;48.758;9.150;2023-03-08T14:33:19;2.20;;;0.80;;
45354;SDS011;31091;48.758;9.150;2023-03-08T14:36:05;1.20;;;0.80;;
45354;SDS011;31091;48.758;9.150;2023-03-08T14:38:50;1.42;;;0.73;;
45354;SDS011;31091;48.758;9.150;2023-03-08T14:41:35;2.90;;;0.70;;
45354;SDS011;31091;48.758;9.150;2023-03-08T14:44:22;0.50;;;0.50;;
45354;SDS011;31091;48.758;9.150;2023-03-08T14:47:19;1.95;;;0.50;;
45354;SDS011;31091;48.758;9.150;2023-03-08T14:52:52;0.88;;;0.80;;
45354;SDS011;31091;48.758;9.150;2023-03-08T14:55:38;1.00;;;0.60;;
45354;SDS011;31091;48.758;9.150;2023-03-08T14:58:26;1.55;;;0.60;;
45354;SDS011;31091;48.758;9.150;2023-03-08T15:01:21;0.95;;;0.60;;
45354;SDS011;31091;48.758;9.150;2023-03-08T15:04:17;2.58;;;0.90;;
45354;SDS011;31091;48.758;9.150;2023-03-08T15:07:03;0.65;;;0.65;;
45354;SDS011;31091;48.758;9.150;2023-03-08T15:09:49;2.58;;;0.82;;
45354;SDS011;31091;48.758;9.150;2023-03-08T15:12:35;4.13;;;2.80;;
45354;SDS011;31091;48.758;9.150;2023-03-08T15:15:20;1.55;;;0.70;;
45354;SDS011;31091;48.758;9.150;2023-03-08T15:18:05;0.93;;;0.80;;
45354;SDS011;31091;48.758;9.150;2023-03-08T15:20:50;2.63;;;1.00;;
45354;SDS011;31091;48.758;9.150;2023-03-08T15:23:36;1.30;;;0.77;;
45354;SDS011;31091;48.758;9.150;2023-03-08T15:26:23;2.53;;;0.80;;
45354;SDS011;31091;48.758;9.150;2023-03-08T15:32:12;0.80;;;0.77;;
45354;SDS011;31091;48.758;9.150;2023-03-08T15:34:57;3.15;;;0.88;;
45354;SDS011;31091;48.758;9.150;2023-03-08T15:37:43;1.52;;;0.90;;
45354;SDS011;31091;48.758;9.150;2023-03-08T15:40:29;1.48;;;1.00;;
45354;SDS011;31091;48.758;9.150;2023-03-08T15:43:14;0.75;;;0.68;;
45354;SDS011;31091;48.758;9.150;2023-03-08T15:45:59;1.05;;;0.80;;
45354;SDS011;31091;48.758;9.150;2023-03-08T15:48:45;1.63;;;0.80;;
45354;SDS011;31091;48.758;9.150;2023-03-08T15:51:31;0.60;;;0.57;;
45354;SDS011;31091;48.758;9.150;2023-03-08T15:54:17;1.35;;;0.60;;
45354;SDS011;31091;48.758;9.150;2023-03-08T15:57:02;1.10;;;0.80;;
45354;SDS011;31091;48.758;9.150;2023-03-08T15:59:47;0.60;;;0.60;;
45354;SDS011;31091;48.758;9.150;2023-03-08T16:02:34;1.42;;;0.90;;
45354;SDS011;31091;48.758;9.150;2023-03-08T16:05:20;1.35;;;0.70;;
45354;SDS011;31091;48.758;9.150;2023-03-08T16:08:07;1.42;;;0.70;;
45354;SDS011;31091;48.758;9.150;2023-03-08T16:10:52;1.15;;;0.70;;
45354;SDS011;31091;48.758;9.150;2023-03-08T16:13:37;0.63;;;0.60;;
45354;SDS011;31091;48.758;9.150;2023-03-08T16:16:23;1.45;;;0.80;;
45354;SDS011;31091;48.758;9.150;2023-03-08T16:19:08;1.15;;;0.88;;
45354;SDS011;31091;48.758;9.150;2023-03-08T16:21:53;1.88;;;0.90;;
45354;SDS011;31091;48.758;9.150;2023-03-08T16:24:38;0.68;;;0.63;;
45354;SDS011;31091;48.758;9.150;2023-03-08T16:27:24;1.17;;;0.90;;
45354;SDS011;31091;48.758;9.150;2023-03-08T16:30:10;1.10;;;0.80;;
45354;SDS011;31091;48.758;9.150;2023-03-08T16:32:55;1.25;;;1.00;;
45354;SDS011;31091;48.758;9.150;2023-03-08T16:35:46;3.25;;;0.90;;
45354;SDS011;31091;48.758;9.150;2023-03-08T16:38:31;1.25;;;0.80;;
45354;SDS011;31091;48.758;9.150;2023-03-08T16:41:16;0.80;;;0.80;;
45354;SDS011;31091;48.758;9.150;2023-03-08T16:44:03;1.70;;;1.00;;
45354;SDS011;31091;48.758;9.150;2023-03-08T16:46:48;1.13;;;1.00;;
45354;SDS011;31091;48.758;9.150;2023-03-08T16:49:34;2.47;;;0.98;;
45354;SDS011;31091;48.758;9.150;2023-03-08T16:52:19;1.23;;;0.77;;
45354;SDS011;31091;48.758;9.150;2023-03-08T16:55:05;1.02;;;0.90;;
45354;SDS011;31091;48.758;9.150;2023-03-08T16:57:50;1.75;;;1.08;;
45354;SDS011;31091;48.758;9.150;2023-03-08T17:00:35;0.88;;;0.60;;
45354;SDS011;31091;48.758;9.150;2023-03-08T17:03:21;1.45;;;1.05;;
45354;SDS011;31091;48.758;9.150;2023-03-08T17:06:08;2.20;;;1.15;;
45354;SDS011;31091;48.758;9.150;2023-03-08T17:08:53;0.88;;;0.80;;
45354;SDS011;31091;48.758;9.150;2023-03-08T17:11:39;0.95;;;0.80;;
45354;SDS011;31091;48.758;9.150;2023-03-08T17:14:25;1.38;;;0.82;;
45354;SDS011;31091;48.758;9.150;2023-03-08T17:17:10;4.07;;;1.02;;
45354;SDS011;31091;48.758;9.150;2023-03-08T17:19:57;2.25;;;1.13;;
45354;SDS011;31091;48.758;9.150;2023-03-08T17:22:42;1.27;;;1.13;;
45354;SDS011;31091;48.758;9.150;2023-03-08T17:25:27;5.22;;;1.00;;
45354;SDS011;31091;48.758;9.150;2023-03-08T17:28:13;1.65;;;0.90;;
45354;SDS011;31091;48.758;9.150;2023-03-08T17:30:59;1.60;;;1.02;;
45354;SDS011;31091;48.758;9.150;2023-03-08T17:33:45;1.50;;;0.95;;
45354;SDS011;31091;48.758;9.150;2023-03-08T17:36:30;1.15;;;0.80;;
45354;SDS011;31091;48.758;9.150;2023-03-08T17:39:16;3.22;;;0.93;;
45354;SDS011;31091;48.758;9.150;2023-03-08T17:42:05;1.02;;;0.98;;
45354;SDS011;31091;48.758;9.150;2023-03-08T17:44:50;2.10;;;1.17;;